Terminal Aerodrome Forecast
Issued by NWS

Home | Current Version | Previous Version | Text Only | Print | Product List | Glossary On
Versions: 1 2 3 4 5 6 7 8 9 10 11 12 13 14 15 16 17 18
000
FTUS45 KRIW 300500
TAFWRL
TAF
KWRL 300525Z 3006/3106 16008KT P6SM SCT250
     FM302000 VRB05KT P6SM SCT080
     FM310000 36006KT P6SM VCSH SCT060 BKN080
     FM310500 VRB05KT P6SM BKN080=

USA.gov is the U.S. government's official web portal to all federal, state and local government web resources and services.